createdAt,value
2019-01-20T00:01:00.771Z,6.30
2019-01-20T00:03:29.668Z,7.17
2019-01-20T00:05:58.477Z,11.63
2019-01-20T00:08:27.344Z,6.80
2019-01-20T00:10:56.317Z,11.20
2019-01-20T00:13:25.128Z,6.33
2019-01-20T00:15:54.482Z,7.93
2019-01-20T00:18:23.416Z,7.50
2019-01-20T00:20:52.502Z,8.30
2019-01-20T00:23:21.408Z,8.77
2019-01-20T00:25:50.233Z,7.33
2019-01-20T00:28:19.216Z,8.07
2019-01-20T00:30:48.174Z,5.67
2019-01-20T00:33:17.072Z,8.60
2019-01-20T00:35:45.951Z,8.43
2019-01-20T00:38:14.934Z,7.10
2019-01-20T00:40:43.814Z,10.97
2019-01-20T00:43:12.757Z,8.17
2019-01-20T00:45:41.727Z,8.60
2019-01-20T00:48:10.685Z,5.00
2019-01-20T00:50:39.512Z,5.23
2019-01-20T00:53:08.942Z,4.67
2019-01-20T00:55:37.827Z,6.47
2019-01-20T00:58:06.781Z,8.57
2019-01-20T01:00:35.763Z,8.50
2019-01-20T01:03:05.000Z,6.40
2019-01-20T01:05:33.978Z,10.20
2019-01-20T01:08:02.960Z,8.10
2019-01-20T01:10:31.852Z,8.40
2019-01-20T01:13:03.145Z,9.03
2019-01-20T01:15:32.004Z,5.20
2019-01-20T01:18:01.317Z,7.70
2019-01-20T01:20:30.293Z,5.77
2019-01-20T01:22:59.535Z,5.03
2019-01-20T01:25:28.453Z,7.30
2019-01-20T01:27:57.386Z,7.27
2019-01-20T01:30:26.505Z,4.67
2019-01-20T01:32:55.727Z,5.67
2019-01-20T01:35:24.748Z,5.53
2019-01-20T01:37:53.657Z,8.80
2019-01-20T01:40:22.652Z,5.77
2019-01-20T01:42:51.508Z,8.73
2019-01-20T01:45:21.038Z,6.70
2019-01-20T01:47:50.005Z,8.50
2019-01-20T01:50:19.497Z,5.10
2019-01-20T01:52:48.501Z,13.00
2019-01-20T01:55:17.503Z,9.53
2019-01-20T01:57:46.420Z,9.00
2019-01-20T02:00:22.850Z,7.87
2019-01-20T02:02:52.096Z,7.27
2019-01-20T02:05:21.168Z,6.97
2019-01-20T02:07:50.061Z,5.30
2019-01-20T02:10:20.876Z,6.67
2019-01-20T02:12:50.777Z,4.50
2019-01-20T02:15:20.401Z,5.47
2019-01-20T02:17:49.528Z,6.87
2019-01-20T02:20:25.076Z,6.37
2019-01-20T02:22:53.977Z,5.40
2019-01-20T02:25:22.960Z,5.60
2019-01-20T02:27:54.677Z,4.87
2019-01-20T02:30:26.054Z,6.90
2019-01-20T02:32:55.020Z,4.80
2019-01-20T02:35:24.005Z,7.30
2019-01-20T02:38:02.373Z,6.70
2019-01-20T02:40:31.673Z,6.10
2019-01-20T02:43:00.871Z,5.23
2019-01-20T02:45:29.880Z,5.30
2019-01-20T02:47:58.761Z,8.47
2019-01-20T02:50:27.656Z,8.03
2019-01-20T02:52:56.520Z,7.20
2019-01-20T02:55:25.384Z,5.90
2019-01-20T02:57:54.271Z,5.87
2019-01-20T03:00:24.382Z,5.00
2019-01-20T03:02:53.366Z,5.77
2019-01-20T03:05:24.852Z,8.27
2019-01-20T03:07:53.637Z,5.50
2019-01-20T03:10:22.497Z,6.87
2019-01-20T03:12:51.367Z,6.00
2019-01-20T03:15:20.279Z,7.77
2019-01-20T03:17:49.416Z,7.53
2019-01-20T03:20:21.941Z,6.17
2019-01-20T03:22:50.839Z,5.33
2019-01-20T03:25:20.081Z,6.43
2019-01-20T03:27:49.058Z,6.10
2019-01-20T03:30:20.379Z,4.43
2019-01-20T03:32:49.351Z,4.07
2019-01-20T03:35:21.705Z,7.50
2019-01-20T03:37:50.651Z,6.50
2019-01-20T03:40:19.828Z,9.43
2019-01-20T03:42:49.216Z,5.70
2019-01-20T03:45:18.440Z,5.77
2019-01-20T03:47:47.501Z,5.40
2019-01-20T03:50:17.109Z,4.60
2019-01-20T03:52:46.866Z,6.40
2019-01-20T03:55:16.703Z,6.63
2019-01-20T03:57:45.944Z,7.90
2019-01-20T04:00:17.399Z,6.60
2019-01-20T04:02:48.657Z,7.67
2019-01-20T04:05:18.052Z,3.43
2019-01-20T04:07:46.996Z,2.90
2019-01-20T04:10:16.061Z,8.03
2019-01-20T04:12:46.469Z,10.17
2019-01-20T04:15:16.554Z,7.10
2019-01-20T04:17:45.827Z,6.97
2019-01-20T04:20:14.759Z,6.20
2019-01-20T04:22:43.745Z,4.93
2019-01-20T04:25:14.277Z,9.20
2019-01-20T04:27:43.158Z,6.10
2019-01-20T04:30:17.608Z,9.03
2019-01-20T04:32:47.177Z,6.80
2019-01-20T04:35:16.406Z,4.80
2019-01-20T04:37:45.389Z,5.67
2019-01-20T04:40:24.504Z,9.07
2019-01-20T04:42:53.446Z,7.33
2019-01-20T04:45:22.299Z,6.50
2019-01-20T04:47:51.172Z,11.10
2019-01-20T04:50:24.503Z,8.47
2019-01-20T04:52:53.466Z,7.40
2019-01-20T04:55:22.667Z,7.80
2019-01-20T04:57:55.796Z,5.47
2019-01-20T05:00:26.417Z,8.57
2019-01-20T05:02:55.922Z,6.50
2019-01-20T05:05:25.280Z,8.80
2019-01-20T05:07:54.088Z,8.57
2019-01-20T05:10:22.978Z,6.43
2019-01-20T05:12:51.908Z,8.27
2019-01-20T05:15:24.037Z,5.87
2019-01-20T05:17:52.918Z,6.73
2019-01-20T05:20:21.774Z,5.77
2019-01-20T05:22:50.672Z,7.30
2019-01-20T05:25:19.815Z,8.77
2019-01-20T05:27:48.816Z,6.63
2019-01-20T05:30:24.487Z,7.80
2019-01-20T05:32:53.402Z,6.23
2019-01-20T05:35:22.346Z,7.70
2019-01-20T05:37:51.236Z,6.67
2019-01-20T05:40:20.403Z,5.70
2019-01-20T05:42:49.607Z,7.67
2019-01-20T05:45:20.995Z,6.10
2019-01-20T05:47:49.896Z,9.50
2019-01-20T05:50:18.835Z,6.03
2019-01-20T05:52:47.815Z,6.33
2019-01-20T05:55:16.765Z,5.00
2019-01-20T05:57:46.143Z,7.27
2019-01-20T06:00:17.819Z,5.63
2019-01-20T06:02:46.760Z,6.93
2019-01-20T06:05:15.657Z,7.57
2019-01-20T06:07:44.452Z,6.90
2019-01-20T06:10:13.709Z,10.20
2019-01-20T06:12:42.572Z,7.07
2019-01-20T06:15:14.345Z,7.97
2019-01-20T06:17:43.136Z,9.83
2019-01-20T06:20:12.119Z,5.50
2019-01-20T06:22:41.074Z,6.77
2019-01-20T06:25:10.518Z,10.23
2019-01-20T06:27:39.474Z,6.40
2019-01-20T06:30:18.440Z,8.37
2019-01-20T06:32:47.416Z,7.53
2019-01-20T06:35:16.589Z,6.87
2019-01-20T06:37:45.596Z,7.30
2019-01-20T06:40:14.537Z,5.90
2019-01-20T06:42:43.423Z,9.40
2019-01-20T06:45:12.441Z,7.30
2019-01-20T06:47:41.245Z,6.17
2019-01-20T06:50:12.341Z,7.80
2019-01-20T06:52:41.250Z,7.77
2019-01-20T06:55:11.350Z,6.87
2019-01-20T06:57:40.330Z,9.00
2019-01-20T07:00:23.052Z,7.80
2019-01-20T07:02:52.049Z,7.23
2019-01-20T07:05:21.003Z,7.70
2019-01-20T07:07:50.108Z,8.17
2019-01-20T07:10:19.633Z,4.40
2019-01-20T07:12:48.699Z,5.87
2019-01-20T07:15:20.162Z,6.30
2019-01-20T07:17:49.078Z,5.47
2019-01-20T07:20:17.953Z,7.03
2019-01-20T07:22:46.880Z,9.60
2019-01-20T07:25:15.745Z,9.03
2019-01-20T07:27:44.687Z,8.13
2019-01-20T07:30:19.141Z,8.80
2019-01-20T07:32:48.760Z,6.13
2019-01-20T07:35:18.039Z,8.10
2019-01-20T07:37:47.109Z,6.90
2019-01-20T07:40:19.794Z,7.13
2019-01-20T07:42:48.635Z,8.00
2019-01-20T07:45:17.916Z,6.13
2019-01-20T07:47:46.794Z,7.83
2019-01-20T07:50:21.502Z,6.60
2019-01-20T07:52:50.446Z,6.00
2019-01-20T07:55:19.664Z,9.17
2019-01-20T07:57:48.837Z,7.77
2019-01-20T08:00:19.662Z,5.67
2019-01-20T08:02:48.634Z,9.57
2019-01-20T08:05:18.260Z,8.97
2019-01-20T08:07:47.210Z,5.90
2019-01-20T08:10:27.597Z,10.10
2019-01-20T08:12:56.579Z,10.73
2019-01-20T08:15:26.188Z,7.93
2019-01-20T08:17:54.970Z,7.80
2019-01-20T08:20:24.368Z,8.60
2019-01-20T08:22:53.329Z,7.17
2019-01-20T08:25:22.436Z,8.43
2019-01-20T08:27:52.251Z,9.67
2019-01-20T08:30:23.320Z,6.83
2019-01-20T08:32:52.273Z,8.37
2019-01-20T08:35:21.163Z,8.30
2019-01-20T08:37:50.333Z,6.87
2019-01-20T08:40:23.478Z,9.03
2019-01-20T08:42:52.472Z,7.70
2019-01-20T08:45:52.233Z,7.80
2019-01-20T08:48:22.529Z,7.10
2019-01-20T08:50:51.345Z,9.20
2019-01-20T08:53:20.587Z,10.87
2019-01-20T08:55:49.429Z,7.10
2019-01-20T08:58:18.503Z,10.27
2019-01-20T09:00:47.384Z,9.10
2019-01-20T09:03:16.565Z,7.97
2019-01-20T09:05:45.680Z,8.10
2019-01-20T09:08:14.504Z,9.20
2019-01-20T09:10:43.337Z,9.67
2019-01-20T09:13:12.249Z,10.97
2019-01-20T09:15:41.194Z,8.00
2019-01-20T09:18:10.258Z,8.33
2019-01-20T09:20:39.188Z,8.80
2019-01-20T09:23:08.123Z,9.60
2019-01-20T09:25:37.078Z,8.10
2019-01-20T09:28:06.057Z,10.03
2019-01-20T09:30:35.005Z,15.87
2019-01-20T09:33:04.854Z,13.57
2019-01-20T09:35:33.724Z,9.60
2019-01-20T09:38:02.606Z,9.53
2019-01-20T09:40:31.668Z,8.83
2019-01-20T09:43:00.480Z,10.80
2019-01-20T09:45:30.723Z,7.87
2019-01-20T09:47:59.731Z,7.37
2019-01-20T09:50:28.721Z,9.47
2019-01-20T09:52:57.925Z,10.70
2019-01-20T09:55:26.782Z,9.50
2019-01-20T09:57:56.109Z,7.67
2019-01-20T10:00:26.910Z,9.00
2019-01-20T10:02:56.711Z,8.77
2019-01-20T10:05:25.662Z,7.13
2019-01-20T10:07:54.802Z,9.70
2019-01-20T10:10:23.669Z,8.87
2019-01-20T10:12:52.785Z,8.67
2019-01-20T10:15:21.828Z,7.27
2019-01-20T10:17:50.617Z,8.47
2019-01-20T10:20:22.146Z,10.93
2019-01-20T10:22:51.095Z,8.17
2019-01-20T10:25:20.095Z,7.13
2019-01-20T10:27:49.007Z,10.00
2019-01-20T10:30:29.480Z,11.37
2019-01-20T10:36:10.433Z,8.97
2019-01-20T10:38:39.837Z,9.10
2019-01-20T10:41:11.539Z,8.90
2019-01-20T10:43:40.560Z,10.17
2019-01-20T10:46:09.539Z,8.00
2019-01-20T10:48:38.532Z,8.33
2019-01-20T10:51:07.870Z,8.00
2019-01-20T10:53:36.825Z,10.03
2019-01-20T10:56:05.770Z,9.10
2019-01-20T10:58:34.683Z,8.63
2019-01-20T11:01:03.647Z,9.27
2019-01-20T11:03:32.505Z,6.57
2019-01-20T11:06:01.490Z,9.80
2019-01-20T11:08:30.360Z,8.93
2019-01-20T11:10:59.189Z,9.27
2019-01-20T11:13:28.107Z,10.87
2019-01-20T11:15:57.701Z,8.77
2019-01-20T11:18:26.938Z,9.87
2019-01-20T11:20:56.268Z,8.73
2019-01-20T11:23:25.742Z,9.33
2019-01-20T11:25:54.572Z,10.67
2019-01-20T11:28:24.427Z,6.73
2019-01-20T11:30:53.462Z,7.20
2019-01-20T11:33:22.710Z,9.37
2019-01-20T11:35:51.508Z,8.07
2019-01-20T11:38:20.525Z,7.30
2019-01-20T11:40:49.426Z,8.73
2019-01-20T11:43:18.339Z,10.50
2019-01-20T11:45:47.295Z,6.73
2019-01-20T11:48:16.192Z,9.20
2019-01-20T11:50:45.072Z,7.67
2019-01-20T11:53:14.244Z,9.10
2019-01-20T11:55:43.122Z,7.53
2019-01-20T11:58:11.973Z,7.23
2019-01-20T12:00:46.673Z,8.20
2019-01-20T12:03:15.853Z,9.13
2019-01-20T12:05:46.948Z,8.17
2019-01-20T12:08:17.140Z,8.20
2019-01-20T12:10:46.282Z,9.70
2019-01-20T12:13:31.807Z,7.57
2019-01-20T12:16:00.879Z,8.60
2019-01-20T12:18:30.300Z,7.17
2019-01-20T12:20:59.251Z,7.30
2019-01-20T12:23:28.069Z,10.00
2019-01-20T12:25:56.970Z,7.00
2019-01-20T12:28:34.106Z,7.50
2019-01-20T12:31:02.982Z,7.70
2019-01-20T12:33:32.807Z,8.13
2019-01-20T12:36:02.160Z,7.37
2019-01-20T12:38:31.245Z,7.53
2019-01-20T12:41:00.449Z,7.10
2019-01-20T12:43:29.368Z,5.70
2019-01-20T12:45:58.193Z,6.97
2019-01-20T12:48:27.148Z,5.73
2019-01-20T12:50:55.944Z,7.27
2019-01-20T12:53:25.503Z,6.83
2019-01-20T12:55:54.482Z,7.70
2019-01-20T12:58:23.746Z,7.17
2019-01-20T13:00:52.605Z,6.23
2019-01-20T13:03:21.572Z,5.83
2019-01-20T13:05:50.860Z,6.37
2019-01-20T13:08:20.109Z,5.90
2019-01-20T13:10:49.114Z,5.93
2019-01-20T13:13:18.348Z,6.60
2019-01-20T13:15:47.680Z,8.03
2019-01-20T13:18:16.591Z,6.37
2019-01-20T13:20:45.393Z,6.00
2019-01-20T13:23:14.293Z,5.63
2019-01-20T13:25:43.197Z,5.97
2019-01-20T13:28:12.006Z,5.20
2019-01-20T13:30:40.848Z,6.70
2019-01-20T13:33:09.763Z,7.90
2019-01-20T13:35:38.682Z,7.50
2019-01-20T13:38:19.532Z,7.23
2019-01-20T13:41:01.003Z,6.87
2019-01-20T13:43:30.062Z,7.03
2019-01-20T13:45:59.240Z,5.57
2019-01-20T13:48:28.097Z,6.70
2019-01-20T13:50:57.455Z,6.10
2019-01-20T13:53:26.422Z,5.20
2019-01-20T13:56:01.102Z,6.60
2019-01-20T13:58:26.000Z,6.83
2019-01-20T14:00:54.903Z,7.27
2019-01-20T14:03:23.735Z,6.73
2019-01-20T14:05:53.058Z,7.20
2019-01-20T14:08:22.033Z,6.00
2019-01-20T14:10:50.933Z,7.33
2019-01-20T14:13:19.748Z,7.33
2019-01-20T14:15:48.651Z,6.27
2019-01-20T14:18:17.465Z,5.23
2019-01-20T14:20:46.457Z,6.10
2019-01-20T14:23:15.312Z,5.60
2019-01-20T14:25:44.260Z,6.23
2019-01-20T14:28:13.152Z,5.80
2019-01-20T14:30:42.068Z,6.57
2019-01-20T14:33:10.874Z,5.40
2019-01-20T14:35:40.135Z,7.67
2019-01-20T14:38:08.982Z,6.70
2019-01-20T14:40:39.084Z,5.60
2019-01-20T14:43:07.953Z,7.40
2019-01-20T14:45:36.920Z,7.53
2019-01-20T14:48:05.928Z,5.77
2019-01-20T14:50:34.909Z,7.77
2019-01-20T14:53:03.985Z,5.93
2019-01-20T14:55:33.448Z,6.03
2019-01-20T14:58:03.771Z,5.10
2019-01-20T15:00:53.215Z,5.87
2019-01-20T15:03:28.375Z,6.47
2019-01-20T15:06:02.339Z,5.80
2019-01-20T15:08:33.300Z,6.63
2019-01-20T15:13:57.069Z,7.00
2019-01-20T15:17:01.047Z,6.30
2019-01-20T15:19:39.790Z,7.27
2019-01-20T15:22:27.672Z,6.40
2019-01-20T15:28:14.599Z,5.63
2019-01-20T15:31:28.280Z,6.10
2019-01-20T15:34:15.804Z,6.50
2019-01-20T15:40:18.302Z,10.63
2019-01-20T15:42:47.604Z,6.80
2019-01-20T15:45:18.542Z,7.73
2019-01-20T15:47:47.507Z,6.97
2019-01-20T15:50:19.192Z,7.30
2019-01-20T15:52:48.483Z,6.63
2019-01-20T15:55:17.817Z,7.30
2019-01-20T15:57:46.835Z,7.93
2019-01-20T16:00:24.457Z,6.70
2019-01-20T16:03:05.554Z,6.40
2019-01-20T16:05:35.497Z,7.93
2019-01-20T16:08:04.450Z,9.00
2019-01-20T16:10:34.384Z,6.60
2019-01-20T16:13:04.132Z,7.80
2019-01-20T16:15:37.703Z,8.13
2019-01-20T16:18:07.454Z,7.13
2019-01-20T16:20:36.738Z,6.47
2019-01-20T16:23:09.090Z,7.10
2019-01-20T16:25:39.019Z,5.83
2019-01-20T16:28:10.702Z,6.80
2019-01-20T16:30:42.586Z,6.50
2019-01-20T16:33:12.997Z,7.50
2019-01-20T16:35:42.563Z,6.53
2019-01-20T16:38:29.157Z,6.70
2019-01-20T16:40:58.874Z,6.13
2019-01-20T16:43:28.346Z,7.80
2019-01-20T16:45:57.952Z,7.03
2019-01-20T16:48:27.442Z,7.10
2019-01-20T16:50:59.070Z,6.50
2019-01-20T16:53:28.442Z,7.30
2019-01-20T16:55:58.548Z,7.73
2019-01-20T16:58:28.965Z,6.00
2019-01-20T17:00:59.069Z,7.07
2019-01-20T17:03:28.614Z,8.20
2019-01-20T17:05:57.864Z,14.83
2019-01-20T17:08:27.344Z,10.33
2019-01-20T17:10:56.405Z,7.97
2019-01-20T17:13:25.413Z,7.13
2019-01-20T17:15:58.167Z,5.80
2019-01-20T17:18:30.038Z,8.03
2019-01-20T17:21:02.332Z,6.40
2019-01-20T17:23:34.036Z,8.63
2019-01-20T17:26:09.064Z,7.17
2019-01-20T17:28:52.402Z,6.83
2019-01-20T17:31:31.968Z,7.17
2019-01-20T17:34:03.792Z,8.00
2019-01-20T17:36:35.694Z,7.00
2019-01-20T17:39:11.983Z,7.83
2019-01-20T17:41:39.534Z,6.67
2019-01-20T17:44:08.400Z,8.50
2019-01-20T17:46:37.289Z,8.90
2019-01-20T17:49:06.269Z,9.53
2019-01-20T17:51:40.125Z,6.77
2019-01-20T17:54:09.333Z,5.50
2019-01-20T17:56:38.217Z,8.43
2019-01-20T17:59:07.476Z,6.00
2019-01-20T18:01:36.934Z,6.70
2019-01-20T18:04:05.946Z,7.50
2019-01-20T18:06:34.834Z,7.47
2019-01-20T18:09:07.463Z,6.87
2019-01-20T18:11:36.277Z,7.77
2019-01-20T18:14:05.499Z,7.70
2019-01-20T18:16:34.390Z,7.47
2019-01-20T18:19:03.374Z,7.23
2019-01-20T18:21:32.173Z,6.87
2019-01-20T18:24:01.036Z,7.63
2019-01-20T18:26:29.879Z,7.93
2019-01-20T18:28:59.011Z,8.43
2019-01-20T18:31:27.890Z,10.10
2019-01-20T18:33:56.780Z,8.43
2019-01-20T18:36:26.001Z,7.23
2019-01-20T18:38:54.817Z,7.70
2019-01-20T18:41:23.773Z,7.50
2019-01-20T18:43:52.664Z,8.37
2019-01-20T18:46:21.545Z,9.20
2019-01-20T18:48:50.433Z,8.87
2019-01-20T18:51:19.388Z,9.67
2019-01-20T18:53:48.275Z,10.03
2019-01-20T18:56:17.215Z,8.60
2019-01-20T18:58:46.096Z,8.50
2019-01-20T19:01:15.330Z,8.20
2019-01-20T19:03:44.166Z,8.23
2019-01-20T19:06:13.152Z,7.93
2019-01-20T19:08:42.074Z,9.00
2019-01-20T19:11:11.012Z,9.67
2019-01-20T19:13:39.939Z,8.57
2019-01-20T19:16:09.298Z,10.07
2019-01-20T19:18:38.269Z,14.53
2019-01-20T19:21:07.064Z,12.77
2019-01-20T19:23:35.999Z,10.20
2019-01-20T19:26:05.017Z,9.73
2019-01-20T19:28:33.938Z,9.87
2019-01-20T19:31:03.126Z,10.23
2019-01-20T19:33:31.970Z,9.30
2019-01-20T19:36:00.840Z,7.87
2019-01-20T19:38:29.779Z,8.00
2019-01-20T19:40:58.718Z,9.37
2019-01-20T19:43:27.541Z,10.00
2019-01-20T19:45:57.638Z,8.63
2019-01-20T19:48:27.589Z,10.20
2019-01-20T19:50:57.703Z,9.30
2019-01-20T19:53:27.787Z,8.63
2019-01-20T19:55:58.620Z,10.47
2019-01-20T19:58:28.654Z,7.87
2019-01-20T20:00:59.607Z,9.50
2019-01-20T20:03:30.455Z,9.57
2019-01-20T20:06:00.968Z,7.70
2019-01-20T20:08:31.693Z,10.10
2019-01-20T20:11:03.499Z,8.37
2019-01-20T20:13:33.094Z,11.20
2019-01-20T20:16:03.970Z,11.37
2019-01-20T20:18:33.693Z,11.10
2019-01-20T20:21:03.821Z,10.20
2019-01-20T20:23:34.370Z,11.33
2019-01-20T20:26:04.636Z,11.50
2019-01-20T20:28:35.852Z,10.50
2019-01-20T20:31:05.883Z,10.90
2019-01-20T20:33:36.896Z,10.80
2019-01-20T20:36:08.070Z,11.70
2019-01-20T20:38:40.071Z,11.07
2019-01-20T20:44:49.367Z,9.70
2019-01-20T20:58:57.862Z,10.80
2019-01-20T21:05:45.185Z,14.53
2019-01-20T21:08:20.115Z,12.00
2019-01-20T21:10:59.189Z,11.70
2019-01-20T21:13:49.778Z,18.50
2019-01-20T21:16:57.504Z,13.03
2019-01-20T21:19:57.085Z,9.70
2019-01-20T21:44:56.257Z,12.70
2019-01-20T21:47:25.616Z,11.03
2019-01-20T21:49:54.603Z,10.80
2019-01-20T21:52:23.468Z,10.83
2019-01-20T21:54:52.263Z,11.07
2019-01-20T21:57:21.150Z,11.10
2019-01-20T21:59:49.936Z,10.37
2019-01-20T22:02:18.764Z,14.03
2019-01-20T22:04:47.598Z,11.37
2019-01-20T22:07:16.789Z,9.10
2019-01-20T22:09:45.579Z,11.83
2019-01-20T22:12:14.484Z,11.90
2019-01-20T22:14:43.337Z,10.60
2019-01-20T22:17:12.772Z,13.03
2019-01-20T22:19:42.056Z,9.97
2019-01-20T22:22:10.950Z,10.60
2019-01-20T22:24:40.057Z,9.90
2019-01-20T22:27:09.868Z,12.37
2019-01-20T22:29:38.660Z,12.43
2019-01-20T22:32:07.707Z,13.50
2019-01-20T22:34:36.532Z,11.00
2019-01-20T22:37:05.449Z,10.80
2019-01-20T22:39:34.397Z,8.87
2019-01-20T22:42:03.215Z,10.80
2019-01-20T22:44:32.130Z,10.00
2019-01-20T22:47:01.044Z,12.17
2019-01-20T22:49:29.957Z,10.90
2019-01-20T22:51:58.767Z,11.70
2019-01-20T22:54:27.694Z,9.97
2019-01-20T22:56:56.817Z,11.23
2019-01-20T22:59:26.064Z,10.07
2019-01-20T23:01:55.057Z,11.63
2019-01-20T23:04:23.958Z,11.10
2019-01-20T23:06:52.928Z,10.00
2019-01-20T23:09:21.951Z,10.73
2019-01-20T23:11:50.852Z,11.50
2019-01-20T23:14:19.784Z,11.27
2019-01-20T23:16:49.396Z,13.10
2019-01-20T23:19:18.621Z,11.50
2019-01-20T23:21:47.529Z,10.10
2019-01-20T23:24:16.393Z,11.77
2019-01-20T23:26:45.262Z,9.37
2019-01-20T23:29:14.477Z,10.40
2019-01-20T23:31:43.762Z,11.60
2019-01-20T23:34:12.876Z,13.57
2019-01-20T23:36:41.678Z,10.27
2019-01-20T23:39:10.569Z,10.10
2019-01-20T23:41:39.499Z,10.27
2019-01-20T23:44:08.287Z,11.53
2019-01-20T23:46:37.106Z,12.07
2019-01-20T23:49:05.968Z,10.47
2019-01-20T23:51:34.779Z,10.63
2019-01-20T23:54:03.707Z,11.50
2019-01-20T23:56:32.521Z,14.43
2019-01-20T23:59:01.314Z,12.20
